Amistad, New Mexico
Current Conditions -  °F | °C
As of 7:53 PM on Wednesday 22 Oct 2014 (Local Time) from KDHT Reporting Station
Clear Clear  
Wind Chill: 61°   Ceiling: Unl
Heat Index: 61°   Visibility: 10mi
Dew Point: 53°   Wind: 8mph
Humidity: 75%   Direction: 150°SSE
Pressure: 30.08"   Gusts: NA
Location:  35.92°N, 103.16°W
Report Text: KDHT 230153Z AUTO 15007KT 10SM CLR 16/12 A3008 RMK AO2 SLP152 T01610117
Loading
Personal Weather Stations






























Interactive Weather Map
Tropical Storm Tracking
New forecast layout! Learn more

10-Day Weather Forecast

Advertisements
Track Severe Weather on mobile